createdAt,value
2018-10-17T00:02:22.457Z,15.57
2018-10-17T00:04:51.104Z,16.63
2018-10-17T00:07:19.682Z,16.37
2018-10-17T00:09:48.169Z,15.93
2018-10-17T00:12:16.707Z,16.67
2018-10-17T00:14:45.302Z,16.90
2018-10-17T00:17:14.373Z,15.23
2018-10-17T00:19:42.864Z,15.00
2018-10-17T00:22:12.295Z,14.43
2018-10-17T00:24:40.881Z,13.97
2018-10-17T00:27:10.470Z,14.63
2018-10-17T00:29:38.964Z,14.90
2018-10-17T00:32:07.634Z,14.80
2018-10-17T00:34:36.185Z,13.57
2018-10-17T00:37:04.802Z,14.70
2018-10-17T00:39:33.283Z,15.37
2018-10-17T00:42:02.584Z,16.00
2018-10-17T00:44:32.786Z,15.50
2018-10-17T00:47:01.400Z,15.50
2018-10-17T00:49:29.949Z,15.37
2018-10-17T00:51:58.462Z,15.07
2018-10-17T00:54:26.995Z,13.73
2018-10-17T00:56:55.584Z,13.47
2018-10-17T00:59:24.177Z,14.23
2018-10-17T01:01:52.771Z,13.07
2018-10-17T01:04:21.789Z,13.97
2018-10-17T01:06:50.306Z,14.40
2018-10-17T01:09:19.025Z,14.00
2018-10-17T01:11:47.612Z,14.90
2018-10-17T01:14:16.161Z,14.47
2018-10-17T01:16:44.648Z,14.20
2018-10-17T01:19:13.314Z,14.47
2018-10-17T01:21:41.843Z,13.47
2018-10-17T01:24:10.398Z,12.90
2018-10-17T01:26:38.909Z,14.07
2018-10-17T01:29:07.547Z,14.80
2018-10-17T01:31:36.077Z,12.63
2018-10-17T01:34:05.631Z,14.20
2018-10-17T01:36:34.149Z,15.10
2018-10-17T01:39:02.868Z,14.50
2018-10-17T01:41:31.444Z,14.47
2018-10-17T01:43:59.964Z,14.93
2018-10-17T01:46:28.592Z,15.53
2018-10-17T01:48:57.292Z,14.07
2018-10-17T01:51:25.798Z,14.43
2018-10-17T01:53:55.153Z,15.53
2018-10-17T01:56:23.849Z,15.13
2018-10-17T01:58:52.395Z,15.70
2018-10-17T02:01:21.941Z,14.80
2018-10-17T02:03:50.505Z,15.33
2018-10-17T02:06:20.072Z,13.70
2018-10-17T02:08:48.685Z,14.57
2018-10-17T02:11:17.315Z,14.97
2018-10-17T02:13:47.616Z,14.43
2018-10-17T02:16:16.091Z,15.33
2018-10-17T02:18:44.614Z,14.50
2018-10-17T02:21:13.298Z,14.50
2018-10-17T02:23:41.906Z,14.67
2018-10-17T02:26:10.468Z,14.30
2018-10-17T02:28:39.685Z,15.20
2018-10-17T02:31:08.313Z,16.07
2018-10-17T02:33:36.854Z,15.70
2018-10-17T02:36:05.453Z,14.30
2018-10-17T02:38:33.993Z,16.23
2018-10-17T02:41:02.915Z,14.30
2018-10-17T02:43:32.053Z,15.07
2018-10-17T02:46:00.581Z,16.23
2018-10-17T02:48:29.290Z,15.67
2018-10-17T02:50:57.981Z,15.90
2018-10-17T02:53:26.538Z,16.27
2018-10-17T02:55:55.170Z,15.70
2018-10-17T02:58:23.871Z,15.53
2018-10-17T03:00:52.571Z,15.67
2018-10-17T03:03:21.236Z,15.10
2018-10-17T03:05:49.773Z,14.90
2018-10-17T03:08:19.340Z,14.53
2018-10-17T03:10:48.271Z,14.03
2018-10-17T03:13:16.826Z,15.43
2018-10-17T03:15:45.557Z,14.53
2018-10-17T03:18:14.099Z,13.77
2018-10-17T03:20:42.696Z,14.07
2018-10-17T03:23:11.365Z,15.70
2018-10-17T03:25:39.901Z,17.00
2018-10-17T03:28:08.594Z,16.30
2018-10-17T03:30:37.062Z,15.17
2018-10-17T03:33:05.734Z,14.50
2018-10-17T03:35:34.318Z,15.73
2018-10-17T03:38:02.930Z,16.33
2018-10-17T03:40:31.514Z,16.40
2018-10-17T03:43:00.294Z,16.50
2018-10-17T03:45:29.116Z,15.97
2018-10-17T03:47:57.635Z,16.83
2018-10-17T03:50:26.150Z,16.47
2018-10-17T03:52:55.199Z,18.33
2018-10-17T03:55:23.854Z,18.63
2018-10-17T03:57:52.382Z,19.57
2018-10-17T04:00:20.938Z,18.13
2018-10-17T04:02:49.660Z,17.27
2018-10-17T04:05:18.346Z,17.07
2018-10-17T04:07:46.782Z,16.23
2018-10-17T04:10:15.291Z,15.93
2018-10-17T04:12:44.009Z,17.63
2018-10-17T04:15:12.529Z,17.93
2018-10-17T04:17:41.306Z,17.43
2018-10-17T04:20:09.789Z,17.33
2018-10-17T04:22:43.004Z,16.50
2018-10-17T04:25:11.470Z,17.07
2018-10-17T04:27:39.978Z,17.30
2018-10-17T04:30:08.681Z,17.33
2018-10-17T04:32:37.461Z,18.13
2018-10-17T04:35:06.380Z,17.60
2018-10-17T04:37:35.926Z,17.63
2018-10-17T04:40:04.754Z,18.03
2018-10-17T04:42:33.374Z,16.67
2018-10-17T04:45:02.574Z,16.30
2018-10-17T04:47:31.266Z,15.80
2018-10-17T04:50:00.154Z,16.07
2018-10-17T04:52:28.807Z,17.67
2018-10-17T04:54:57.392Z,17.07
2018-10-17T04:57:26.100Z,16.40
2018-10-17T04:59:54.711Z,16.40
2018-10-17T05:02:23.305Z,16.87
2018-10-17T05:04:51.804Z,16.63
2018-10-17T05:07:20.406Z,16.20
2018-10-17T05:09:48.916Z,16.87
2018-10-17T05:12:18.256Z,17.37
2018-10-17T05:14:47.419Z,17.70
2018-10-17T05:17:16.062Z,18.83
2018-10-17T05:19:44.725Z,18.57
2018-10-17T05:22:13.331Z,16.73
2018-10-17T05:24:41.973Z,16.47
2018-10-17T05:27:10.489Z,15.83
2018-10-17T05:29:39.336Z,16.60
2018-10-17T05:32:07.943Z,15.83
2018-10-17T05:34:37.172Z,16.70
2018-10-17T05:37:06.213Z,17.07
2018-10-17T05:39:34.909Z,19.27
2018-10-17T05:42:04.867Z,17.17
2018-10-17T05:44:33.409Z,16.93
2018-10-17T05:47:02.173Z,17.03
2018-10-17T05:49:31.467Z,18.93
2018-10-17T05:52:00.074Z,18.67
2018-10-17T05:54:29.536Z,18.10
2018-10-17T05:56:58.131Z,18.20
2018-10-17T05:59:26.717Z,16.77
2018-10-17T06:01:55.775Z,17.23
2018-10-17T06:04:24.285Z,20.13
2018-10-17T06:06:53.678Z,18.73
2018-10-17T06:09:23.321Z,19.63
2018-10-17T06:11:51.916Z,20.97
2018-10-17T06:14:20.452Z,19.13
2018-10-17T06:16:49.066Z,19.00
2018-10-17T06:19:17.702Z,20.37
2018-10-17T06:21:46.370Z,20.63
2018-10-17T06:24:15.005Z,21.53
2018-10-17T06:26:44.886Z,24.77
2018-10-17T06:29:13.556Z,23.00
2018-10-17T06:31:42.114Z,21.77
2018-10-17T06:34:10.899Z,21.87
2018-10-17T06:36:39.521Z,20.60
2018-10-17T06:39:11.343Z,22.63
2018-10-17T06:41:39.950Z,20.27
2018-10-17T06:44:08.797Z,21.07
2018-10-17T06:46:37.613Z,21.30
2018-10-17T06:49:06.989Z,21.33
2018-10-17T06:51:35.475Z,21.90
2018-10-17T06:54:04.287Z,21.97
2018-10-17T06:56:32.825Z,21.60
2018-10-17T06:59:01.557Z,21.47
2018-10-17T07:01:30.360Z,22.43
2018-10-17T07:03:58.914Z,22.97
2018-10-17T07:06:27.551Z,24.87
2018-10-17T07:08:56.202Z,25.43
2018-10-17T07:11:24.820Z,24.10
2018-10-17T07:13:53.441Z,23.23
2018-10-17T07:16:22.111Z,24.33
2018-10-17T07:18:50.735Z,23.03
2018-10-17T07:21:19.293Z,23.87
2018-10-17T07:23:47.887Z,23.90
2018-10-17T07:26:16.403Z,24.37
2018-10-17T07:28:45.086Z,23.70
2018-10-17T07:31:13.773Z,22.77
2018-10-17T07:33:42.401Z,21.93
2018-10-17T07:36:11.216Z,22.00
2018-10-17T07:38:39.823Z,21.23
2018-10-17T07:41:09.261Z,20.40
2018-10-17T07:43:37.831Z,18.83
2018-10-17T07:46:07.517Z,18.70
2018-10-17T07:48:37.366Z,18.63
2018-10-17T07:51:06.150Z,19.37
2018-10-17T07:53:35.453Z,18.93
2018-10-17T07:56:04.152Z,18.33
2018-10-17T07:58:33.167Z,17.23
2018-10-17T08:01:01.750Z,17.07
2018-10-17T08:03:32.365Z,15.43
2018-10-17T08:06:00.999Z,15.57
2018-10-17T08:08:29.470Z,15.83
2018-10-17T08:10:58.038Z,14.90
2018-10-17T08:13:26.680Z,16.13
2018-10-17T08:15:55.148Z,15.57
2018-10-17T08:18:23.720Z,16.07
2018-10-17T08:20:52.655Z,16.03
2018-10-17T08:23:21.225Z,16.83
2018-10-17T08:25:49.943Z,15.13
2018-10-17T08:28:18.956Z,15.83
2018-10-17T08:30:47.529Z,16.53
2018-10-17T08:33:18.761Z,15.93
2018-10-17T08:35:47.403Z,15.77
2018-10-17T08:38:16.050Z,16.27
2018-10-17T08:40:44.670Z,16.87
2018-10-17T08:43:13.299Z,17.37
2018-10-17T08:45:42.449Z,17.60
2018-10-17T08:48:11.137Z,16.33
2018-10-17T08:50:40.902Z,17.20
2018-10-17T08:53:09.477Z,19.13
2018-10-17T08:55:38.598Z,19.30
2018-10-17T08:58:07.217Z,18.83
2018-10-17T09:00:35.827Z,19.37
2018-10-17T09:03:04.652Z,19.17
2018-10-17T09:05:33.333Z,19.27
2018-10-17T09:08:03.122Z,17.47
2018-10-17T09:10:31.698Z,17.67
2018-10-17T09:13:00.905Z,17.60
2018-10-17T09:15:29.555Z,17.80
2018-10-17T09:17:58.112Z,17.30
2018-10-17T09:20:27.103Z,16.53
2018-10-17T09:22:55.447Z,16.73
2018-10-17T09:25:23.935Z,14.13
2018-10-17T09:27:53.136Z,15.67
2018-10-17T09:30:22.721Z,14.60
2018-10-17T09:32:51.354Z,15.53
2018-10-17T09:35:20.060Z,13.63
2018-10-17T09:37:49.205Z,13.47
2018-10-17T09:40:17.834Z,13.93
2018-10-17T09:42:46.466Z,14.07
2018-10-17T09:45:15.027Z,13.60
2018-10-17T09:47:43.646Z,13.00
2018-10-17T09:50:12.309Z,13.50
2018-10-17T09:52:41.081Z,13.53
2018-10-17T09:55:10.045Z,12.77
2018-10-17T09:57:38.727Z,13.07
2018-10-17T10:01:15.360Z,12.73
2018-10-17T10:03:44.322Z,12.93
2018-10-17T10:06:12.922Z,13.30
2018-10-17T10:08:41.623Z,12.83
2018-10-17T10:11:10.217Z,14.00
2018-10-17T10:13:38.897Z,13.67
2018-10-17T10:16:07.571Z,13.27
2018-10-17T10:18:36.027Z,14.13
2018-10-17T10:21:04.716Z,15.53
2018-10-17T10:23:33.380Z,16.23
2018-10-17T10:26:01.923Z,14.93
2018-10-17T10:28:30.503Z,14.50
2018-10-17T10:30:59.153Z,15.10
2018-10-17T10:33:27.744Z,14.33
2018-10-17T10:35:56.771Z,14.17
2018-10-17T10:38:25.359Z,13.53
2018-10-17T10:40:54.047Z,12.13
2018-10-17T10:43:23.726Z,11.87
2018-10-17T10:45:52.321Z,12.40
2018-10-17T10:48:21.057Z,13.27
2018-10-17T10:50:49.830Z,14.17
2018-10-17T10:53:18.318Z,13.13
2018-10-17T10:55:48.141Z,13.90
2018-10-17T10:58:16.778Z,14.47
2018-10-17T11:00:45.393Z,13.67
2018-10-17T11:03:14.104Z,14.30
2018-10-17T11:05:42.879Z,13.53
2018-10-17T11:08:11.584Z,15.10
2018-10-17T11:10:40.134Z,14.33
2018-10-17T11:13:09.028Z,14.47
2018-10-17T11:15:38.227Z,13.73
2018-10-17T11:20:45.379Z,15.60
2018-10-17T11:23:14.614Z,15.37
2018-10-17T11:25:43.218Z,12.83
2018-10-17T11:28:11.903Z,11.30
2018-10-17T11:30:40.671Z,10.77
2018-10-17T11:33:09.322Z,11.47
2018-10-17T11:35:38.027Z,11.63
2018-10-17T11:38:06.658Z,10.97
2018-10-17T11:40:35.240Z,11.40
2018-10-17T11:43:03.872Z,10.67
2018-10-17T11:45:33.530Z,11.07
2018-10-17T11:48:02.418Z,11.27
2018-10-17T11:50:31.008Z,11.77
2018-10-17T11:52:59.682Z,11.67
2018-10-17T11:55:28.153Z,11.27
2018-10-17T11:57:56.846Z,12.30
2018-10-17T12:00:25.491Z,11.87
2018-10-17T12:02:54.309Z,12.57
2018-10-17T12:05:23.122Z,12.47
2018-10-17T12:07:51.453Z,12.90
2018-10-17T12:10:20.148Z,12.57
2018-10-17T12:12:48.696Z,13.10
2018-10-17T12:15:17.325Z,13.30
2018-10-17T12:17:45.918Z,12.80
2018-10-17T12:20:15.701Z,13.80
2018-10-17T12:22:45.209Z,12.97
2018-10-17T12:25:14.286Z,12.97
2018-10-17T12:27:42.909Z,12.70
2018-10-17T12:30:13.668Z,12.40
2018-10-17T12:32:42.434Z,13.48
2018-10-17T12:35:11.925Z,12.35
2018-10-17T12:37:40.615Z,11.12
2018-10-17T12:40:10.657Z,11.38
2018-10-17T12:42:39.207Z,11.70
2018-10-17T12:45:07.807Z,12.33
2018-10-17T12:47:36.374Z,12.00
2018-10-17T12:50:05.441Z,12.50
2018-10-17T12:52:33.896Z,11.03
2018-10-17T12:55:02.402Z,10.20
2018-10-17T12:57:30.827Z,10.30
2018-10-17T12:59:59.831Z,9.88
2018-10-17T13:02:29.388Z,9.18
2018-10-17T13:04:58.021Z,9.75
2018-10-17T13:07:28.679Z,9.43
2018-10-17T13:09:57.246Z,9.33
2018-10-17T13:12:25.866Z,9.43
2018-10-17T13:14:54.768Z,9.60
2018-10-17T13:17:23.788Z,9.58
2018-10-17T13:19:52.394Z,10.10
2018-10-17T13:22:21.256Z,10.03
2018-10-17T13:24:50.009Z,9.58
2018-10-17T13:27:18.892Z,9.43
2018-10-17T13:29:47.590Z,10.08
2018-10-17T13:32:17.203Z,10.15
2018-10-17T13:34:45.895Z,11.08
2018-10-17T13:37:14.793Z,11.57
2018-10-17T13:39:43.342Z,11.12
2018-10-17T13:42:12.354Z,10.43
2018-10-17T13:44:40.927Z,12.50
2018-10-17T13:47:09.721Z,12.15
2018-10-17T13:49:38.665Z,12.93
2018-10-17T13:52:07.301Z,12.58
2018-10-17T13:54:35.981Z,11.90
2018-10-17T13:57:04.867Z,10.30
2018-10-17T13:59:33.637Z,9.65
2018-10-17T14:02:02.401Z,10.00
2018-10-17T14:04:31.530Z,10.75
2018-10-17T14:07:00.125Z,10.40
2018-10-17T14:09:28.676Z,10.60
2018-10-17T14:11:57.474Z,10.70
2018-10-17T14:14:26.062Z,10.40
2018-10-17T14:16:54.986Z,13.03
2018-10-17T14:19:24.051Z,12.68
2018-10-17T14:21:52.711Z,12.63
2018-10-17T14:24:21.554Z,13.63
2018-10-17T14:26:50.156Z,13.83
2018-10-17T14:29:18.686Z,14.23
2018-10-17T14:31:47.246Z,15.50
2018-10-17T14:34:15.985Z,16.00
2018-10-17T14:36:44.574Z,15.73
2018-10-17T14:39:13.757Z,16.00
2018-10-17T14:41:42.454Z,16.97
2018-10-17T14:44:10.967Z,16.57
2018-10-17T14:46:41.381Z,16.20
2018-10-17T14:49:10.001Z,16.87
2018-10-17T14:51:38.584Z,15.73
2018-10-17T14:54:07.273Z,16.80
2018-10-17T14:56:35.821Z,17.80
2018-10-17T14:59:04.578Z,17.90
2018-10-17T15:01:33.139Z,19.07
2018-10-17T15:04:01.695Z,19.60
2018-10-17T15:06:30.275Z,18.23
2018-10-17T15:08:59.156Z,18.60
2018-10-17T15:11:27.808Z,19.57
2018-10-17T15:13:57.532Z,19.97
2018-10-17T15:16:26.135Z,21.13
2018-10-17T15:18:54.844Z,20.10
2018-10-17T15:21:23.471Z,20.43
2018-10-17T15:23:52.221Z,21.47
2018-10-17T15:26:20.863Z,20.23
2018-10-17T15:28:49.395Z,19.40
2018-10-17T15:31:17.988Z,18.80
2018-10-17T15:33:46.558Z,19.17
2018-10-17T15:36:16.278Z,19.70
2018-10-17T15:38:45.085Z,19.97
2018-10-17T15:41:13.805Z,19.93
2018-10-17T15:43:42.678Z,19.67
2018-10-17T15:46:13.416Z,20.97
2018-10-17T15:48:42.069Z,22.67
2018-10-17T15:51:10.736Z,23.40
2018-10-17T15:53:40.350Z,25.97
2018-10-17T15:56:08.938Z,25.37
2018-10-17T15:58:37.610Z,26.57
2018-10-17T16:01:06.309Z,25.13
2018-10-17T16:03:35.009Z,23.93
2018-10-17T16:06:03.662Z,23.90
2018-10-17T16:08:32.637Z,23.17
2018-10-17T16:11:01.129Z,26.00
2018-10-17T16:13:29.747Z,25.80
2018-10-17T16:15:59.271Z,27.90
2018-10-17T16:18:27.949Z,28.13
2018-10-17T16:20:57.014Z,28.13
2018-10-17T16:23:25.538Z,27.40
2018-10-17T16:25:54.137Z,26.77
2018-10-17T16:28:22.720Z,26.00
2018-10-17T16:30:51.303Z,27.57
2018-10-17T16:33:20.269Z,26.53
2018-10-17T16:35:48.851Z,24.87
2018-10-17T16:38:17.606Z,24.43
2018-10-17T16:40:46.163Z,23.73
2018-10-17T16:43:14.826Z,23.77
2018-10-17T16:45:43.486Z,22.43
2018-10-17T16:48:11.980Z,22.20
2018-10-17T16:50:40.604Z,20.07
2018-10-17T16:53:09.100Z,19.07
2018-10-17T16:55:37.670Z,20.63
2018-10-17T16:58:06.331Z,21.67
2018-10-17T17:00:34.971Z,20.00
2018-10-17T17:03:04.908Z,20.10
2018-10-17T17:05:33.432Z,18.67
2018-10-17T17:08:01.918Z,16.87
2018-10-17T17:10:30.633Z,18.20
2018-10-17T17:12:59.249Z,18.53
2018-10-17T17:15:27.772Z,20.40
2018-10-17T17:17:56.433Z,21.13
2018-10-17T17:20:25.990Z,24.13
2018-10-17T17:22:56.125Z,25.00
2018-10-17T17:25:24.847Z,25.67
2018-10-17T17:27:53.533Z,25.30
2018-10-17T17:30:22.166Z,25.33
2018-10-17T17:32:50.722Z,23.30
2018-10-17T17:37:49.176Z,22.90
2018-10-17T17:40:17.746Z,23.10
2018-10-17T17:42:47.662Z,23.77
2018-10-17T17:45:16.246Z,24.27
2018-10-17T17:47:44.822Z,23.90
2018-10-17T17:50:13.661Z,26.07
2018-10-17T17:52:43.421Z,26.10
2018-10-17T17:55:11.987Z,27.30
2018-10-17T17:57:40.896Z,27.47
2018-10-17T18:00:09.563Z,28.37
2018-10-17T18:02:38.058Z,29.67
2018-10-17T18:05:07.711Z,31.07
2018-10-17T18:07:36.465Z,31.60
2018-10-17T18:10:05.640Z,30.47
2018-10-17T18:12:34.394Z,30.73
2018-10-17T18:15:03.097Z,30.43
2018-10-17T18:17:32.167Z,31.57
2018-10-17T18:20:00.821Z,31.57
2018-10-17T18:22:29.636Z,31.47
2018-10-17T18:24:58.130Z,31.73
2018-10-17T18:27:27.091Z,30.57
2018-10-17T18:29:55.729Z,30.90
2018-10-17T18:32:24.774Z,30.93
2018-10-17T18:34:54.473Z,31.70
2018-10-17T18:37:23.028Z,34.23
2018-10-17T18:39:51.670Z,30.70
2018-10-17T18:42:20.341Z,31.53
2018-10-17T18:44:49.191Z,32.53
2018-10-17T18:47:17.845Z,33.17
2018-10-17T18:49:46.854Z,32.77
2018-10-17T18:52:15.570Z,31.62
2018-10-17T18:54:44.258Z,30.17
2018-10-17T18:57:13.288Z,28.47
2018-10-17T18:59:41.992Z,31.17
2018-10-17T19:02:10.536Z,32.48
2018-10-17T19:04:39.213Z,31.90
2018-10-17T19:07:08.304Z,32.33
2018-10-17T19:09:36.964Z,32.07
2018-10-17T19:12:06.074Z,31.03
2018-10-17T19:14:34.862Z,33.20
2018-10-17T19:17:03.503Z,32.67
2018-10-17T19:19:32.088Z,32.87
2018-10-17T19:22:00.943Z,33.63
2018-10-17T19:24:29.667Z,32.97
2018-10-17T19:26:58.627Z,33.77
2018-10-17T19:29:27.386Z,33.77
2018-10-17T19:31:56.005Z,34.17
2018-10-17T19:34:24.775Z,33.90
2018-10-17T19:36:53.548Z,34.13
2018-10-17T19:39:22.740Z,34.50
2018-10-17T19:41:51.652Z,35.10
2018-10-17T19:44:20.231Z,33.70
2018-10-17T19:46:48.742Z,35.23
2018-10-17T19:49:17.378Z,33.70
2018-10-17T19:51:45.932Z,34.10
2018-10-17T19:54:15.857Z,31.97
2018-10-17T19:56:44.490Z,31.40
2018-10-17T19:59:14.137Z,32.73
2018-10-17T20:01:42.757Z,33.33
2018-10-17T20:04:11.388Z,33.87
2018-10-17T20:06:40.247Z,35.40
2018-10-17T20:09:10.333Z,35.13
2018-10-17T20:11:39.097Z,34.53
2018-10-17T20:14:09.459Z,36.77
2018-10-17T20:16:37.970Z,33.50
2018-10-17T20:19:06.729Z,34.87
2018-10-17T20:21:35.402Z,32.73
2018-10-17T20:24:04.747Z,29.60
2018-10-17T20:26:33.605Z,33.53
2018-10-17T20:29:02.078Z,35.40
2018-10-17T20:31:30.896Z,36.23
2018-10-17T20:34:00.258Z,35.80
2018-10-17T20:36:28.873Z,36.03
2018-10-17T20:38:57.567Z,38.20
2018-10-17T20:41:26.798Z,37.50
2018-10-17T20:43:55.595Z,35.83
2018-10-17T20:46:24.423Z,34.87
2018-10-17T20:48:53.318Z,36.37
2018-10-17T20:51:22.122Z,35.33
2018-10-17T20:53:50.739Z,36.23
2018-10-17T20:56:19.735Z,38.43
2018-10-17T20:58:48.447Z,37.83
2018-10-17T21:01:17.009Z,40.30
2018-10-17T21:03:46.654Z,36.33
2018-10-17T21:06:15.270Z,33.77
2018-10-17T21:08:46.285Z,34.63
2018-10-17T21:11:14.942Z,32.37
2018-10-17T21:13:44.517Z,34.80
2018-10-17T21:16:13.432Z,39.47
2018-10-17T21:18:42.040Z,41.17
2018-10-17T21:21:10.581Z,43.70
2018-10-17T21:23:39.199Z,44.20
2018-10-17T21:26:07.937Z,43.33
2018-10-17T21:28:36.555Z,41.17
2018-10-17T21:31:05.692Z,46.27
2018-10-17T21:33:34.291Z,48.97
2018-10-17T21:36:02.847Z,47.97
2018-10-17T21:38:31.383Z,46.27
2018-10-17T21:40:59.919Z,46.27
2018-10-17T21:43:28.615Z,45.00
2018-10-17T21:45:57.415Z,39.13
2018-10-17T21:48:25.977Z,42.40
2018-10-17T21:50:54.747Z,44.03
2018-10-17T21:53:23.447Z,48.67
2018-10-17T21:55:52.258Z,47.37
2018-10-17T21:58:20.881Z,49.20
2018-10-17T22:00:49.497Z,49.47
2018-10-17T22:03:18.378Z,47.43
2018-10-17T22:05:46.952Z,44.97
2018-10-17T22:08:15.533Z,38.10
2018-10-17T22:10:44.118Z,36.60
2018-10-17T22:13:12.769Z,40.10
2018-10-17T22:15:41.997Z,46.90
2018-10-17T22:18:10.768Z,48.33
2018-10-17T22:20:39.429Z,51.33
2018-10-17T22:23:08.310Z,46.80
2018-10-17T22:25:36.830Z,43.20
2018-10-17T22:28:05.664Z,44.10
2018-10-17T22:30:34.467Z,42.23
2018-10-17T22:33:03.005Z,45.53
2018-10-17T22:35:31.914Z,45.43
2018-10-17T22:38:00.675Z,44.77
2018-10-17T22:40:29.365Z,43.70
2018-10-17T22:42:58.026Z,44.00
2018-10-17T22:45:26.765Z,42.13
2018-10-17T22:47:56.490Z,44.00
2018-10-17T22:50:25.022Z,47.73
2018-10-17T22:52:54.177Z,50.10
2018-10-17T22:55:23.604Z,51.60
2018-10-17T22:57:52.105Z,53.83
2018-10-17T23:00:20.651Z,54.07
2018-10-17T23:02:49.337Z,55.93
2018-10-17T23:05:18.815Z,54.77
2018-10-17T23:07:47.393Z,45.53
2018-10-17T23:10:16.066Z,38.40
2018-10-17T23:12:46.877Z,41.77
2018-10-17T23:15:16.296Z,50.70
2018-10-17T23:17:45.105Z,57.37
2018-10-17T23:20:13.822Z,56.17
2018-10-17T23:22:42.593Z,54.53
2018-10-17T23:25:11.973Z,58.83
2018-10-17T23:27:41.213Z,56.97
2018-10-17T23:30:10.458Z,52.60
2018-10-17T23:32:39.687Z,53.93
2018-10-17T23:35:08.689Z,60.90
2018-10-17T23:37:43.876Z,62.40
2018-10-17T23:40:12.685Z,62.17
2018-10-17T23:42:41.419Z,55.40
2018-10-17T23:45:11.074Z,53.50
2018-10-17T23:47:40.215Z,48.80
2018-10-17T23:50:09.023Z,50.63
2018-10-17T23:52:37.732Z,42.47
2018-10-17T23:55:06.956Z,41.60
2018-10-17T23:57:35.647Z,45.73
